Flight Track Log - Related Links

Times and Time Zones

All times are in EST time to prevent confusion due to time zone crossing. See the N523JM flight status page for this flight to view local times or setup timezone preferences in your user account.

Time Position Orientation Groundspeed Altitude Reporting Facility
EST Latitude Longitude Course Direction KTS MPH feet Rate Location/Type
Mon 07:07:54 AM 40.0772 -83.0914 262° West 175 201 1,500  Level Indianapolis Center
Mon 07:08:06 AM 40.0756 -83.1078 262° West 195 224 2,200 3,097 Climbing Indianapolis Center
Mon 07:08:56 AM 40.0700 -83.1614 262° West 208 239 4,700 2,919 Climbing Indianapolis Center
Mon 07:09:57 AM 40.0586 -83.2383 259° West 215 247 7,600 3,000 Climbing Indianapolis Center
Mon 07:10:58 AM 40.0503 -83.3147 262° West 214 246 10,800 2,754 Climbing Indianapolis Center
Mon 07:11:59 AM 40.0567 -83.3981 276° West 231 266 13,200 2,281 Climbing Indianapolis Center
Mon 07:12:59 AM 40.0611 -83.4867 274° West 246 283 15,400 1,388 Climbing Indianapolis Center
Mon 07:14:00 AM 40.0639 -83.5794 272° West 257 296 16,000 295 Climbing Indianapolis Center
Mon 07:15:01 AM 40.0664 -83.6900 272° West 258 297 16,000  Level Indianapolis Center
Mon 07:16:02 AM 40.0683 -83.7775 272° West 245 282 16,000  Level Indianapolis Center
Mon 07:17:03 AM 40.0706 -83.8694 272° West 253 291 16,000  Level Indianapolis Center
Mon 07:18:04 AM 40.0728 -83.9675 272° West 271 312 16,000  Level Indianapolis Center
Mon 07:19:05 AM 40.0750 -84.0686 272° West 278 320 16,000  Level Indianapolis Center
Mon 07:20:05 AM 40.0769 -84.1642 272° West 268 308 16,000  Level Indianapolis Center
Mon 07:21:07 AM 40.0789 -84.2592 272° West 262 302 16,000  Level Indianapolis Center
Mon 07:22:07 AM 40.0822 -84.3533 273° West 260 299 16,000 -50 Level Indianapolis Center
Mon 07:23:08 AM 40.0825 -84.4469 270° West 260 299 15,900 -590 Descending Indianapolis Center
Mon 07:24:09 AM 40.0853 -84.5400 272° West 258 297 14,800 -1,377 Descending Indianapolis Center
Mon 07:25:10 AM 40.0844 -84.6397 269° West 270 311 13,100 -1,820 Descending Indianapolis Center
Mon 07:26:11 AM 40.0875 -84.7508 272° West 259 298 11,100 -984 Descending Indianapolis Center
Mon 07:27:12 AM 40.0889 -84.8233 271° West 213 245 11,100  Level Indianapolis Center
Mon 07:28:14 AM 40.0903 -84.8917 272° West 193 222 11,100  Level Indianapolis Center
Mon 07:29:15 AM 40.0911 -84.9628 271° West 190 219 11,100  Level Indianapolis Center
Mon 07:30:16 AM 40.0922 -85.0381 271° West 203 234 11,100  Level Indianapolis Center
Mon 07:31:17 AM 40.0936 -85.1064 272° West 194 223 11,100  Level Indianapolis Center
Mon 07:32:18 AM 40.0936 -85.1717 270° West 184 212 11,100 -443 Level Indianapolis Center
Mon 07:33:19 AM 40.0942 -85.2375 271° West 183 211 10,200 -1,317 Descending Indianapolis Center
Mon 07:34:21 AM 40.0950 -85.3081 271° West 192 221 8,400 -1,659 Descending Indianapolis Center
Mon 07:35:22 AM 40.0956 -85.3833 271° West 204 235 6,800 -1,180 Descending Indianapolis Center
Mon 07:36:23 AM 40.0858 -85.4544 260° West 199 229 6,000 -393 Descending Indianapolis Center
Mon 07:37:24 AM 40.0597 -85.5244 244° Southwest 182 209 6,000 -541 Level Indianapolis Center
Mon 07:38:25 AM 40.0367 -85.5836 243° Southwest 183 211 4,900 -780 Descending Indianapolis Center
Mon 07:39:27 AM 40.0161 -85.6344 242° Southwest 172 198 4,400 -293 Descending Indianapolis Center
Mon 07:40:28 AM 39.9978 -85.6872 246° West 164 189 4,300 -98 Descending Indianapolis Center
Mon 07:41:29 AM 39.9861 -85.7481 256° West 167 192 4,200 -65 Descending Indianapolis Center
Mon 07:43:32 AM 39.9725 -85.8708 262° West 171 197 4,100 -65 Descending Indianapolis Center
Mon 07:44:33 AM 39.9628 -85.9289 258° West 168 193 4,000 -49 Descending Indianapolis Center
Mon 07:45:34 AM 39.9408 -85.9936 246° West 170 196 4,000  Level Indianapolis Center
Mon 07:46:36 AM 39.9097 -86.0361 226° Southwest 166 191 4,000 -244 Level Indianapolis Center
Mon 07:47:37 AM 39.8789 -86.0753 224° Southwest 161 185 3,500 -443 Descending Indianapolis Center
Mon 07:48:38 AM 39.8511 -86.1122 226° Southwest 153 176 3,100 -244 Descending Indianapolis Center
Mon 07:49:40 AM 39.8236 -86.1469 224° Southwest 145 167 3,000 -146 Descending Indianapolis Center
Mon 07:50:41 AM 39.7997 -86.1783 225° Southwest 134 154 2,800 -344 Descending Indianapolis Center
Mon 07:51:42 AM 39.7769 -86.2069 224° Southwest 123 142 2,300 -439 Descending Indianapolis Center
Mon 07:52:44 AM 39.7556 -86.2336 224° Southwest 113 130 1,900 -537 Descending Indianapolis Center
Mon 07:53:45 AM 39.7322 -86.2644 225° Southwest 113 130 1,200 -537 Descending Indianapolis Center
Mon 07:54:47 AM 39.7025 -86.3006 223° Southwest 117 135 800 -387 Descending Indianapolis Center
Mon 07:56:00 AM 39.7167 -86.2833 38° Northeast  Level FlightAware Approximate

Login

Don't have an account? Register now (free) for customized features, flight alerts, and more!